Webb City, Missouri
Current Conditions -  °F | °C
As of 7:53 AM on Wednesday 28 Jan 2015 (Local Time) from KJLN Reporting Station
Clear Clear  
Wind Chill: 50°   Ceiling: Unl
Heat Index: 50°   Visibility: 10mi
Dew Point: 33°   Wind: 10mph
Humidity: 52%   Direction: 170°S
Pressure: 30.03"   Gusts: NA
Location:  37.15°N, 94.46°W
Report Text: KJLN 281353Z 17009KT 10SM CLR 10/01 A3003 RMK AO2 SLP168 T01000006 $
Loading
Personal Weather Stations






























Interactive Weather Map New forecast layout! Learn more

10-Day Weather Forecast

Advertisements
Track Severe Weather on mobile